createdAt,value
2022-10-23T00:00:08.437Z,7.50
2022-10-23T00:01:08.389Z,7.90
2022-10-23T00:02:08.432Z,8.00
2022-10-23T00:03:08.366Z,8.00
2022-10-23T00:04:08.376Z,8.10
2022-10-23T00:05:08.382Z,8.40
2022-10-23T00:06:08.356Z,8.20
2022-10-23T00:07:08.325Z,7.40
2022-10-23T00:08:08.334Z,7.50
2022-10-23T00:09:08.304Z,7.60
2022-10-23T00:10:08.307Z,6.90
2022-10-23T00:11:08.307Z,7.10
2022-10-23T00:12:08.287Z,7.40
2022-10-23T00:13:08.260Z,7.60
2022-10-23T00:14:08.265Z,7.50
2022-10-23T00:15:08.241Z,7.70
2022-10-23T00:16:08.245Z,6.60
2022-10-23T00:17:08.242Z,6.60
2022-10-23T00:18:08.224Z,7.10
2022-10-23T00:19:08.200Z,7.70
2022-10-23T00:20:08.198Z,7.60
2022-10-23T00:21:08.193Z,7.80
2022-10-23T00:22:08.183Z,7.80
2022-10-23T00:23:08.192Z,7.70
2022-10-23T00:25:08.142Z,7.60
2022-10-23T00:26:08.136Z,7.30
2022-10-23T00:27:08.114Z,7.40
2022-10-23T00:28:08.121Z,7.90
2022-10-23T00:29:08.117Z,8.30
2022-10-23T00:30:08.101Z,7.30
2022-10-23T00:31:08.070Z,7.20
2022-10-23T00:32:08.080Z,7.50
2022-10-23T00:33:08.058Z,7.60
2022-10-23T00:34:08.170Z,7.10
2022-10-23T00:35:08.064Z,8.00
2022-10-23T00:36:08.034Z,7.70
2022-10-23T00:37:08.007Z,8.20
2022-10-23T00:38:08.016Z,7.70
2022-10-23T00:39:07.992Z,7.20
2022-10-23T00:40:07.990Z,7.90
2022-10-23T00:41:07.992Z,8.10
2022-10-23T00:42:07.970Z,8.40
2022-10-23T00:43:07.946Z,8.20
2022-10-23T00:44:07.961Z,8.10
2022-10-23T00:45:07.928Z,8.60
2022-10-23T00:46:07.926Z,9.00
2022-10-23T00:47:07.937Z,8.60
2022-10-23T00:48:07.905Z,9.20
2022-10-23T00:49:07.943Z,8.50
2022-10-23T00:50:07.885Z,8.40
2022-10-23T00:51:07.861Z,8.90
2022-10-23T00:52:07.869Z,8.30
2022-10-23T00:53:07.875Z,8.80
2022-10-23T00:54:24.797Z,9.00
2022-10-23T00:55:07.829Z,9.20
2022-10-23T00:56:07.822Z,9.50
2022-10-23T00:57:07.796Z,9.70
2022-10-23T00:58:07.806Z,9.10
2022-10-23T00:59:07.806Z,9.60
2022-10-23T01:00:07.782Z,10.00
2022-10-23T01:01:07.846Z,10.10
2022-10-23T01:02:07.878Z,9.50
2022-10-23T01:03:07.739Z,9.90
2022-10-23T01:04:07.736Z,8.90
2022-10-23T01:05:07.756Z,9.20
2022-10-23T01:06:07.717Z,9.50
2022-10-23T01:07:07.692Z,8.80
2022-10-23T01:08:07.701Z,9.80
2022-10-23T01:09:07.677Z,10.00
2022-10-23T01:10:07.673Z,9.40
2022-10-23T01:11:07.682Z,8.80
2022-10-23T01:12:07.670Z,8.50
2022-10-23T01:13:07.658Z,9.70
2022-10-23T01:14:07.638Z,8.90
2022-10-23T01:15:07.615Z,9.60
2022-10-23T01:16:07.621Z,10.70
2022-10-23T01:17:07.637Z,10.50
2022-10-23T01:18:07.596Z,10.10
2022-10-23T01:19:07.585Z,10.00
2022-10-23T01:20:07.575Z,10.70
2022-10-23T01:21:07.557Z,10.20
2022-10-23T01:22:07.560Z,10.20
2022-10-23T01:23:07.643Z,10.00
2022-10-23T01:24:07.517Z,10.30
2022-10-23T01:25:07.520Z,9.80
2022-10-23T01:26:07.493Z,10.50
2022-10-23T01:27:07.495Z,11.30
2022-10-23T01:28:07.475Z,10.10
2022-10-23T01:29:07.509Z,9.60
2022-10-23T01:30:07.450Z,11.00
2022-10-23T01:31:07.457Z,11.00
2022-10-23T01:32:07.431Z,9.80
2022-10-23T01:33:07.433Z,10.60
2022-10-23T01:34:07.407Z,12.60
2022-10-23T01:35:07.436Z,12.90
2022-10-23T01:36:07.392Z,11.20
2022-10-23T01:37:07.390Z,10.70
2022-10-23T01:38:07.367Z,11.30
2022-10-23T01:39:07.403Z,11.00
2022-10-23T01:40:07.344Z,12.10
2022-10-23T01:41:07.382Z,11.90
2022-10-23T01:42:07.325Z,12.10
2022-10-23T01:43:07.328Z,12.00
2022-10-23T01:44:07.307Z,11.60
2022-10-23T01:45:07.308Z,12.90
2022-10-23T01:46:07.284Z,11.60
2022-10-23T01:47:07.311Z,12.10
2022-10-23T01:48:07.265Z,11.30
2022-10-23T01:49:07.272Z,10.90
2022-10-23T01:50:07.243Z,12.00
2022-10-23T01:51:07.241Z,12.40
2022-10-23T01:52:07.226Z,11.40
2022-10-23T01:53:07.253Z,11.50
2022-10-23T01:54:07.197Z,11.30
2022-10-23T01:55:07.207Z,11.50
2022-10-23T01:56:07.177Z,11.10
2022-10-23T01:57:07.188Z,10.30
2022-10-23T01:58:07.165Z,10.20
2022-10-23T01:59:07.205Z,10.20
2022-10-23T02:00:07.135Z,9.80
2022-10-23T02:01:07.196Z,10.90
2022-10-23T02:02:07.309Z,10.70
2022-10-23T02:03:07.130Z,9.10
2022-10-23T02:04:07.100Z,9.20
2022-10-23T02:05:07.135Z,9.40
2022-10-23T02:06:07.076Z,9.70
2022-10-23T02:07:07.078Z,9.60
2022-10-23T02:08:07.075Z,9.70
2022-10-23T02:09:07.056Z,9.60
2022-10-23T02:10:07.028Z,8.70
2022-10-23T02:11:07.060Z,9.20
2022-10-23T02:12:07.012Z,9.10
2022-10-23T02:13:07.011Z,9.40
2022-10-23T02:14:06.987Z,9.30
2022-10-23T02:15:06.996Z,8.80
2022-10-23T02:16:06.971Z,8.80
2022-10-23T02:17:07.217Z,8.40
2022-10-23T02:18:06.943Z,8.60
2022-10-23T02:19:06.955Z,8.80
2022-10-23T02:20:06.922Z,8.60
2022-10-23T02:21:06.930Z,8.80
2022-10-23T02:22:06.902Z,8.40
2022-10-23T02:23:06.953Z,8.90
2022-10-23T02:24:06.886Z,8.60
2022-10-23T02:25:06.888Z,9.00
2022-10-23T02:26:06.866Z,8.80
2022-10-23T02:27:06.864Z,8.70
2022-10-23T02:28:06.841Z,8.70
2022-10-23T02:29:06.915Z,9.50
2022-10-23T02:30:06.829Z,8.70
2022-10-23T02:31:06.827Z,9.20
2022-10-23T02:32:06.803Z,9.40
2022-10-23T02:33:06.805Z,9.40
2022-10-23T02:34:06.775Z,9.70
2022-10-23T02:35:06.821Z,9.30
2022-10-23T02:36:06.757Z,9.50
2022-10-23T02:37:06.757Z,9.50
2022-10-23T02:38:06.740Z,9.50
2022-10-23T02:39:06.739Z,9.80
2022-10-23T02:40:06.715Z,9.40
2022-10-23T02:41:06.745Z,9.50
2022-10-23T02:42:06.704Z,9.30
2022-10-23T02:43:06.698Z,9.10
2022-10-23T02:44:06.680Z,9.30
2022-10-23T02:45:06.678Z,9.70
2022-10-23T02:46:06.659Z,8.90
2022-10-23T02:47:06.679Z,9.50
2022-10-23T02:48:06.638Z,9.20
2022-10-23T02:49:06.643Z,8.80
2022-10-23T02:50:06.609Z,9.40
2022-10-23T02:51:06.616Z,8.80
2022-10-23T02:52:06.594Z,8.70
2022-10-23T02:53:06.628Z,8.40
2022-10-23T02:54:06.572Z,8.90
2022-10-23T02:55:06.568Z,8.10
2022-10-23T02:56:06.543Z,8.40
2022-10-23T02:57:06.559Z,8.00
2022-10-23T02:58:06.526Z,7.80
2022-10-23T02:59:06.565Z,8.50
2022-10-23T03:00:06.525Z,8.30
2022-10-23T03:01:06.539Z,8.00
2022-10-23T03:02:06.772Z,7.90
2022-10-23T03:03:06.488Z,7.90
2022-10-23T03:04:06.459Z,8.00
2022-10-23T03:05:06.495Z,7.90
2022-10-23T03:06:06.443Z,7.90
2022-10-23T03:07:06.446Z,8.10
2022-10-23T03:08:06.458Z,8.10
2022-10-23T03:09:06.425Z,8.60
2022-10-23T03:10:06.415Z,8.20
2022-10-23T03:11:06.532Z,8.20
2022-10-23T03:12:06.396Z,8.30
2022-10-23T03:13:06.397Z,7.80
2022-10-23T03:14:06.362Z,7.90
2022-10-23T03:15:06.368Z,8.10
2022-10-23T03:16:06.347Z,7.70
2022-10-23T03:17:06.529Z,7.80
2022-10-23T03:18:06.313Z,8.00
2022-10-23T03:19:06.423Z,8.30
2022-10-23T03:20:06.339Z,8.60
2022-10-23T03:21:06.316Z,7.40
2022-10-23T03:22:06.274Z,8.30
2022-10-23T03:23:06.497Z,8.00
2022-10-23T03:24:06.261Z,7.70
2022-10-23T03:25:06.285Z,7.90
2022-10-23T03:26:06.231Z,7.50
2022-10-23T03:27:06.244Z,8.30
2022-10-23T03:28:06.213Z,8.30
2022-10-23T03:29:06.328Z,8.20
2022-10-23T03:30:06.192Z,9.00
2022-10-23T03:31:06.190Z,8.60
2022-10-23T03:32:06.173Z,8.40
2022-10-23T03:33:06.184Z,9.10
2022-10-23T03:34:08.139Z,9.50
2022-10-23T03:35:06.179Z,10.20
2022-10-23T03:36:06.135Z,9.70
2022-10-23T03:37:06.130Z,9.50
2022-10-23T03:38:06.108Z,10.20
2022-10-23T03:39:06.113Z,9.90
2022-10-23T03:40:06.087Z,10.60
2022-10-23T03:41:06.116Z,10.40
2022-10-23T03:42:06.063Z,9.10
2022-10-23T03:43:06.073Z,9.70
2022-10-23T03:44:06.044Z,9.20
2022-10-23T03:45:06.043Z,9.50
2022-10-23T03:46:06.021Z,9.50
2022-10-23T03:47:06.062Z,9.40
2022-10-23T03:48:06.000Z,9.30
2022-10-23T03:49:06.002Z,8.40
2022-10-23T03:50:05.979Z,9.00
2022-10-23T03:51:05.990Z,9.30
2022-10-23T03:52:05.957Z,9.40
2022-10-23T03:53:05.984Z,9.60
2022-10-23T03:54:05.935Z,9.40
2022-10-23T03:55:05.964Z,9.30
2022-10-23T03:56:05.932Z,9.60
2022-10-23T03:57:05.928Z,9.80
2022-10-23T03:58:05.899Z,10.10
2022-10-23T03:59:05.946Z,9.90
2022-10-23T04:00:05.894Z,9.80
2022-10-23T04:01:05.965Z,9.90
2022-10-23T04:02:05.897Z,10.10
2022-10-23T04:03:05.857Z,11.10
2022-10-23T04:04:05.844Z,10.00
2022-10-23T04:05:05.871Z,9.60
2022-10-23T04:06:05.817Z,9.90
2022-10-23T04:07:05.826Z,10.00
2022-10-23T04:08:05.798Z,9.90
2022-10-23T04:09:05.855Z,10.00
2022-10-23T04:10:05.795Z,9.80
2022-10-23T04:11:13.735Z,9.30
2022-10-23T04:12:12.257Z,9.70
2022-10-23T04:13:12.261Z,9.60
2022-10-23T04:14:12.229Z,9.10
2022-10-23T04:15:12.238Z,9.60
2022-10-23T04:16:05.705Z,9.40
2022-10-23T04:17:05.743Z,9.40
2022-10-23T04:18:05.691Z,9.40
2022-10-23T04:19:05.691Z,8.50
2022-10-23T04:20:05.685Z,8.20
2022-10-23T04:21:05.680Z,8.50
2022-10-23T04:22:05.651Z,9.00
2022-10-23T04:23:05.684Z,8.40
2022-10-23T04:24:05.622Z,8.20
2022-10-23T04:25:05.632Z,8.80
2022-10-23T04:26:05.602Z,9.10
2022-10-23T04:27:05.608Z,8.40
2022-10-23T04:28:05.583Z,9.30
2022-10-23T04:29:05.611Z,9.00
2022-10-23T04:30:05.560Z,9.80
2022-10-23T04:31:05.568Z,10.30
2022-10-23T04:32:05.544Z,11.00
2022-10-23T04:33:05.543Z,10.80
2022-10-23T04:35:05.554Z,10.80
2022-10-23T04:36:05.504Z,11.50
2022-10-23T04:37:05.498Z,11.50
2022-10-23T04:38:05.486Z,11.20
2022-10-23T04:39:05.485Z,11.00
2022-10-23T04:40:05.462Z,10.50
2022-10-23T04:41:05.482Z,11.70
2022-10-23T04:42:05.433Z,10.60
2022-10-23T04:43:05.441Z,11.80
2022-10-23T04:44:05.421Z,11.30
2022-10-23T04:45:05.426Z,10.80
2022-10-23T04:46:05.390Z,11.00
2022-10-23T04:47:05.431Z,10.70
2022-10-23T04:48:05.370Z,11.30
2022-10-23T04:49:05.377Z,11.40
2022-10-23T04:50:05.348Z,10.90
2022-10-23T04:51:05.354Z,10.80
2022-10-23T04:52:05.330Z,10.40
2022-10-23T04:53:05.368Z,10.30
2022-10-23T04:54:05.311Z,11.00
2022-10-23T04:55:05.312Z,10.60
2022-10-23T04:56:05.292Z,10.30
2022-10-23T04:57:05.293Z,10.00
2022-10-23T04:58:05.333Z,10.00
2022-10-23T05:00:05.280Z,9.80
2022-10-23T05:01:05.381Z,10.20
2022-10-23T05:02:05.427Z,9.70
2022-10-23T05:03:05.300Z,9.00
2022-10-23T05:04:05.239Z,8.70
2022-10-23T05:05:05.242Z,8.70
2022-10-23T05:06:05.190Z,8.50
2022-10-23T05:07:05.366Z,8.40
2022-10-23T05:08:05.271Z,8.50
2022-10-23T05:09:05.241Z,8.70
2022-10-23T05:10:05.207Z,8.60
2022-10-23T05:11:19.813Z,8.40
2022-10-23T05:12:05.174Z,7.80
2022-10-23T05:13:05.144Z,8.20
2022-10-23T05:14:05.173Z,8.40
2022-10-23T05:15:05.107Z,9.00
2022-10-23T05:16:05.173Z,8.40
2022-10-23T05:17:05.202Z,8.10
2022-10-23T05:18:05.124Z,8.40
2022-10-23T05:19:05.116Z,8.10
2022-10-23T05:20:05.170Z,7.20
2022-10-23T05:21:05.080Z,7.90
2022-10-23T05:22:05.078Z,8.60
2022-10-23T05:23:05.066Z,9.10
2022-10-23T05:24:05.048Z,9.10
2022-10-23T05:25:05.026Z,9.20
2022-10-23T05:26:05.033Z,9.70
2022-10-23T05:27:05.007Z,9.90
2022-10-23T05:28:05.016Z,9.70
2022-10-23T05:29:05.017Z,9.40
2022-10-23T05:30:04.970Z,9.10
2022-10-23T05:31:04.940Z,9.10
2022-10-23T05:32:04.907Z,9.50
2022-10-23T05:33:04.912Z,9.20
2022-10-23T05:34:06.156Z,8.50
2022-10-23T05:35:04.923Z,8.50
2022-10-23T05:36:04.885Z,8.80
2022-10-23T05:37:04.881Z,8.90
2022-10-23T05:38:04.846Z,9.30
2022-10-23T05:39:04.854Z,9.30
2022-10-23T05:40:04.828Z,9.40
2022-10-23T05:41:04.883Z,9.00
2022-10-23T05:42:04.805Z,9.40
2022-10-23T05:43:04.820Z,9.70
2022-10-23T05:44:04.790Z,9.90
2022-10-23T05:45:04.788Z,9.50
2022-10-23T05:46:04.762Z,9.30
2022-10-23T05:47:04.801Z,9.50
2022-10-23T05:48:16.755Z,8.90
2022-10-23T05:49:04.751Z,9.50
2022-10-23T05:50:04.721Z,9.70
2022-10-23T05:51:04.729Z,9.00
2022-10-23T05:52:04.706Z,8.90
2022-10-23T05:53:04.740Z,9.00
2022-10-23T05:54:04.684Z,9.20
2022-10-23T05:55:04.692Z,8.80
2022-10-23T05:56:04.658Z,9.40
2022-10-23T05:57:04.753Z,9.90
2022-10-23T05:58:04.645Z,8.80
2022-10-23T05:59:04.661Z,8.10
2022-10-23T06:00:04.621Z,7.40
2022-10-23T06:01:04.705Z,7.30
2022-10-23T06:02:04.689Z,7.60
2022-10-23T06:03:04.595Z,7.30
2022-10-23T06:04:04.598Z,8.00
2022-10-23T06:05:04.605Z,8.20
2022-10-23T06:06:04.556Z,8.50
2022-10-23T06:07:04.554Z,7.30
2022-10-23T06:08:04.529Z,7.20
2022-10-23T06:09:04.539Z,6.90
2022-10-23T06:10:04.528Z,7.50
2022-10-23T06:11:04.549Z,8.10
2022-10-23T06:12:04.488Z,7.90
2022-10-23T06:13:04.490Z,7.90
2022-10-23T06:14:04.471Z,8.10
2022-10-23T06:15:04.470Z,7.60
2022-10-23T06:16:08.676Z,8.70
2022-10-23T06:17:04.491Z,6.90
2022-10-23T06:18:04.448Z,8.30
2022-10-23T06:19:04.433Z,7.50
2022-10-23T06:20:04.405Z,8.00
2022-10-23T06:21:04.420Z,7.80
2022-10-23T06:22:04.382Z,8.00
2022-10-23T06:23:04.433Z,8.20
2022-10-23T06:24:04.386Z,8.20
2022-10-23T06:25:04.363Z,8.50
2022-10-23T06:26:04.353Z,7.80
2022-10-23T06:27:04.351Z,9.30
2022-10-23T06:28:04.323Z,8.20
2022-10-23T06:29:04.348Z,8.90
2022-10-23T06:30:04.299Z,8.80
2022-10-23T06:31:04.302Z,8.80
2022-10-23T06:32:04.278Z,8.90
2022-10-23T06:33:05.972Z,8.40
2022-10-23T06:34:04.257Z,8.40
2022-10-23T06:35:04.284Z,7.90
2022-10-23T06:36:04.237Z,8.40
2022-10-23T06:37:04.242Z,8.40
2022-10-23T06:38:04.223Z,8.30
2022-10-23T06:39:04.221Z,8.30
2022-10-23T06:40:04.197Z,7.80
2022-10-23T06:41:04.236Z,7.90
2022-10-23T06:42:04.189Z,8.40
2022-10-23T06:43:04.189Z,8.60
2022-10-23T06:44:04.152Z,9.00
2022-10-23T06:45:06.493Z,9.40
2022-10-23T06:46:04.134Z,9.40
2022-10-23T06:47:04.208Z,9.40
2022-10-23T06:48:04.131Z,9.90
2022-10-23T06:49:04.127Z,10.00
2022-10-23T06:50:04.096Z,9.70
2022-10-23T06:51:04.097Z,9.10
2022-10-23T06:52:04.070Z,8.90
2022-10-23T06:53:04.117Z,9.30
2022-10-23T06:54:04.049Z,9.40
2022-10-23T06:55:04.051Z,10.10
2022-10-23T06:56:04.037Z,10.00
2022-10-23T06:57:04.040Z,10.00
2022-10-23T06:58:04.023Z,9.50
2022-10-23T06:59:04.034Z,10.10
2022-10-23T07:00:03.987Z,9.50
2022-10-23T07:01:04.199Z,8.90
2022-10-23T07:02:03.974Z,8.80
2022-10-23T07:03:03.979Z,8.70
2022-10-23T07:04:03.985Z,8.80
2022-10-23T07:05:03.954Z,8.40
2022-10-23T07:06:03.934Z,7.70
2022-10-23T07:07:03.926Z,8.30
2022-10-23T07:08:03.904Z,8.70
2022-10-23T07:09:03.903Z,8.70
2022-10-23T07:10:04.043Z,8.80
2022-10-23T07:11:03.890Z,8.60
2022-10-23T07:12:03.860Z,8.50
2022-10-23T07:13:03.876Z,9.00
2022-10-23T07:14:03.842Z,8.70
2022-10-23T07:15:03.885Z,9.20
2022-10-23T07:16:03.825Z,9.70
2022-10-23T07:17:03.819Z,8.90
2022-10-23T07:18:03.798Z,8.60
2022-10-23T07:19:03.824Z,7.70
2022-10-23T07:20:03.779Z,8.00
2022-10-23T07:21:03.835Z,7.60
2022-10-23T07:22:03.802Z,7.50
2022-10-23T07:23:03.763Z,7.30
2022-10-23T07:24:03.743Z,7.60
2022-10-23T07:25:03.738Z,8.00
2022-10-23T07:26:03.753Z,8.00
2022-10-23T07:27:03.715Z,8.10
2022-10-23T07:28:03.704Z,8.30
2022-10-23T07:29:03.738Z,11.30
2022-10-23T07:30:03.705Z,10.30
2022-10-23T07:31:03.727Z,12.50
2022-10-23T07:32:03.697Z,15.00
2022-10-23T07:33:03.679Z,13.50
2022-10-23T07:34:03.653Z,15.30
2022-10-23T07:35:03.686Z,15.00
2022-10-23T07:36:03.640Z,13.20
2022-10-23T07:37:03.653Z,12.30
2022-10-23T07:38:03.628Z,10.30
2022-10-23T07:39:03.719Z,7.60
2022-10-23T07:40:03.576Z,6.90
2022-10-23T07:41:03.577Z,6.80
2022-10-23T07:42:03.549Z,6.80
2022-10-23T07:43:03.585Z,7.10
2022-10-23T07:44:03.529Z,6.10
2022-10-23T07:45:03.568Z,6.60
2022-10-23T07:46:03.508Z,6.30
2022-10-23T07:47:03.507Z,6.00
2022-10-23T07:48:03.540Z,6.00
2022-10-23T07:49:03.508Z,6.10
2022-10-23T07:50:03.463Z,5.90
2022-10-23T07:51:03.465Z,6.00
2022-10-23T07:53:03.447Z,5.80
2022-10-23T07:54:03.443Z,5.80
2022-10-23T07:55:03.434Z,5.70
2022-10-23T07:56:03.400Z,5.50
2022-10-23T07:57:03.405Z,5.70
2022-10-23T07:58:03.378Z,5.10
2022-10-23T07:59:03.404Z,5.40
2022-10-23T08:00:03.503Z,6.00
2022-10-23T08:01:03.420Z,5.80
2022-10-23T08:02:03.374Z,5.10
2022-10-23T08:03:03.341Z,5.40
2022-10-23T08:04:03.340Z,5.10
2022-10-23T08:05:03.320Z,5.40
2022-10-23T08:06:03.358Z,5.60
2022-10-23T08:07:03.303Z,5.30
2022-10-23T08:08:03.271Z,5.70
2022-10-23T08:09:06.286Z,5.00
2022-10-23T08:10:03.271Z,5.20
2022-10-23T08:11:03.289Z,5.40
2022-10-23T08:12:03.242Z,5.30
2022-10-23T08:13:03.234Z,5.40
2022-10-23T08:14:03.214Z,6.70
2022-10-23T08:15:03.288Z,7.10
2022-10-23T08:16:03.189Z,7.90
2022-10-23T08:17:03.332Z,7.50
2022-10-23T08:18:03.198Z,8.00
2022-10-23T08:19:03.196Z,8.40
2022-10-23T08:20:03.147Z,8.20
2022-10-23T08:21:03.189Z,8.60
2022-10-23T08:22:03.128Z,8.80
2022-10-23T08:23:03.148Z,8.00
2022-10-23T08:24:03.132Z,7.50
2022-10-23T08:25:03.114Z,7.10
2022-10-23T08:26:03.111Z,8.10
2022-10-23T08:27:03.094Z,8.20
2022-10-23T08:28:05.594Z,8.10
2022-10-23T08:29:03.077Z,8.60
2022-10-23T08:30:03.049Z,8.50
2022-10-23T08:31:03.044Z,8.20
2022-10-23T08:32:03.052Z,7.90
2022-10-23T08:33:03.028Z,7.90
2022-10-23T08:34:03.004Z,6.30
2022-10-23T08:35:03.006Z,8.30
2022-10-23T08:36:02.980Z,6.90
2022-10-23T08:37:03.014Z,6.00
2022-10-23T08:38:02.955Z,5.90
2022-10-23T08:39:02.968Z,5.50
2022-10-23T08:40:02.938Z,5.20
2022-10-23T08:41:02.938Z,5.00
2022-10-23T08:42:03.000Z,5.20
2022-10-23T08:43:02.936Z,4.50
2022-10-23T08:44:02.897Z,5.20
2022-10-23T08:45:02.929Z,4.90
2022-10-23T08:46:04.222Z,4.70
2022-10-23T08:47:02.888Z,4.70
2022-10-23T08:48:02.901Z,4.80
2022-10-23T08:49:02.857Z,4.90
2022-10-23T08:50:02.834Z,4.80
2022-10-23T08:51:02.832Z,4.60
2022-10-23T08:52:02.807Z,4.30
2022-10-23T08:53:02.828Z,4.50
2022-10-23T08:54:02.832Z,4.70
2022-10-23T08:55:02.796Z,4.50
2022-10-23T08:56:02.769Z,4.90
2022-10-23T08:57:02.774Z,4.40
2022-10-23T08:58:02.748Z,4.40
2022-10-23T08:59:02.755Z,4.20
2022-10-23T09:00:02.807Z,4.50
2022-10-23T09:01:02.870Z,4.40
2022-10-23T09:02:02.892Z,4.00
2022-10-23T09:03:02.722Z,4.60
2022-10-23T09:04:02.689Z,3.90
2022-10-23T09:05:02.688Z,4.30
2022-10-23T09:06:02.684Z,3.80
2022-10-23T09:07:02.758Z,4.00
2022-10-23T09:08:02.640Z,4.20
2022-10-23T09:09:02.719Z,4.30
2022-10-23T09:10:02.625Z,4.50
2022-10-23T09:11:02.623Z,4.50
2022-10-23T09:12:02.755Z,4.50
2022-10-23T09:13:02.601Z,4.20
2022-10-23T09:14:02.583Z,4.20
2022-10-23T09:15:02.593Z,4.10
2022-10-23T09:16:02.553Z,4.30
2022-10-23T09:17:02.657Z,4.50
2022-10-23T09:18:02.564Z,3.60
2022-10-23T09:19:02.539Z,4.10
2022-10-23T09:20:02.547Z,4.60
2022-10-23T09:21:02.546Z,4.20
2022-10-23T09:22:02.494Z,4.40
2022-10-23T09:23:02.491Z,3.90
2022-10-23T09:24:02.492Z,4.00
2022-10-23T09:25:02.486Z,3.70
2022-10-23T09:26:02.452Z,3.70
2022-10-23T09:27:02.452Z,4.00
2022-10-23T09:28:05.255Z,4.10
2022-10-23T09:29:02.445Z,3.80
2022-10-23T09:30:02.453Z,3.80
2022-10-23T09:31:02.408Z,4.00
2022-10-23T09:32:02.390Z,3.80
2022-10-23T09:33:02.430Z,3.90
2022-10-23T09:34:02.365Z,3.70
2022-10-23T09:35:02.379Z,3.70
2022-10-23T09:36:02.382Z,3.70
2022-10-23T09:37:02.357Z,3.70
2022-10-23T09:38:02.329Z,3.60
2022-10-23T09:39:02.352Z,3.30
2022-10-23T09:40:02.307Z,3.60
2022-10-23T09:41:02.545Z,3.40
2022-10-23T09:42:02.322Z,3.50
2022-10-23T09:43:02.269Z,3.30
2022-10-23T09:44:02.271Z,3.10
2022-10-23T09:45:02.249Z,3.20
2022-10-23T09:46:02.255Z,3.50
2022-10-23T09:47:02.234Z,3.30
2022-10-23T09:48:02.268Z,3.40
2022-10-23T09:49:04.976Z,3.50
2022-10-23T09:50:02.208Z,3.20
2022-10-23T09:51:02.183Z,3.20
2022-10-23T09:52:02.187Z,3.80
2022-10-23T09:53:02.165Z,3.00
2022-10-23T09:54:02.190Z,3.00
2022-10-23T09:55:02.151Z,3.30
2022-10-23T09:56:02.159Z,2.90
2022-10-23T09:57:02.131Z,3.10
2022-10-23T09:58:02.147Z,3.00
2022-10-23T09:59:02.105Z,2.90
2022-10-23T10:00:02.142Z,3.00
2022-10-23T10:01:02.260Z,2.70
2022-10-23T10:02:02.213Z,2.90
2022-10-23T10:03:02.059Z,2.90
2022-10-23T10:04:02.068Z,2.80
2022-10-23T10:05:02.057Z,2.70
2022-10-23T10:06:02.085Z,2.60
2022-10-23T10:07:02.026Z,2.60
2022-10-23T10:08:02.037Z,2.50
2022-10-23T10:09:01.994Z,2.70
2022-10-23T10:10:01.998Z,2.60
2022-10-23T10:11:01.978Z,2.50
2022-10-23T10:12:02.005Z,2.70
2022-10-23T10:13:01.950Z,2.50
2022-10-23T10:14:01.958Z,2.10
2022-10-23T10:15:01.930Z,2.40
2022-10-23T10:16:01.929Z,2.30
2022-10-23T10:17:01.929Z,2.00
2022-10-23T10:18:01.975Z,1.90
2022-10-23T10:19:01.890Z,2.10
2022-10-23T10:20:05.247Z,1.90
2022-10-23T10:21:01.874Z,2.10
2022-10-23T10:22:01.884Z,1.90
2022-10-23T10:23:01.845Z,2.00
2022-10-23T10:24:01.896Z,2.00
2022-10-23T10:25:01.829Z,2.20
2022-10-23T10:26:01.838Z,2.00
2022-10-23T10:27:01.804Z,1.90
2022-10-23T10:28:01.813Z,1.80
2022-10-23T10:29:01.790Z,2.00
2022-10-23T10:30:01.821Z,2.00
2022-10-23T10:31:01.764Z,2.00
2022-10-23T10:32:01.774Z,1.90
2022-10-23T10:33:01.749Z,2.00
2022-10-23T10:34:01.750Z,1.90
2022-10-23T10:35:01.729Z,1.90
2022-10-23T10:36:01.750Z,2.00
2022-10-23T10:37:01.695Z,2.10
2022-10-23T10:38:01.701Z,1.90
2022-10-23T10:39:01.683Z,1.80
2022-10-23T10:40:01.690Z,1.90
2022-10-23T10:41:01.660Z,1.90
2022-10-23T10:42:01.704Z,2.00
2022-10-23T10:43:01.635Z,1.90
2022-10-23T10:44:01.643Z,1.90
2022-10-23T10:45:01.611Z,2.00
2022-10-23T10:46:01.619Z,2.00
2022-10-23T10:47:01.594Z,2.30
2022-10-23T10:48:01.617Z,2.10
2022-10-23T10:49:01.570Z,2.20
2022-10-23T10:50:01.577Z,2.00
2022-10-23T10:51:01.551Z,1.90
2022-10-23T10:52:01.562Z,1.90
2022-10-23T10:53:01.529Z,1.90
2022-10-23T10:54:01.577Z,2.00
2022-10-23T10:55:01.505Z,2.10
2022-10-23T10:56:01.577Z,2.00
2022-10-23T10:57:01.495Z,2.00
2022-10-23T10:58:01.492Z,2.00
2022-10-23T10:59:01.464Z,1.90
2022-10-23T11:00:01.492Z,2.00
2022-10-23T11:01:01.591Z,1.90
2022-10-23T11:02:01.573Z,1.90
2022-10-23T11:03:01.439Z,2.50
2022-10-23T11:04:01.430Z,2.80
2022-10-23T11:05:01.409Z,2.70
2022-10-23T11:06:01.455Z,2.60
2022-10-23T11:07:01.388Z,2.40
2022-10-23T11:08:01.386Z,2.60
2022-10-23T11:09:19.384Z,2.80
2022-10-23T11:10:01.374Z,2.70
2022-10-23T11:11:01.348Z,3.00
2022-10-23T11:12:01.390Z,2.80
2022-10-23T11:13:01.346Z,2.90
2022-10-23T11:14:01.320Z,2.80
2022-10-23T11:15:01.292Z,2.50
2022-10-23T11:16:01.305Z,2.40
2022-10-23T11:17:01.272Z,2.20
2022-10-23T11:18:01.343Z,1.90
2022-10-23T11:19:01.254Z,2.20
2022-10-23T11:20:01.255Z,2.10
2022-10-23T11:21:01.236Z,1.70
2022-10-23T11:22:01.239Z,1.70
2022-10-23T11:23:01.246Z,2.00
2022-10-23T11:24:01.287Z,1.70
2022-10-23T11:25:01.193Z,1.80
2022-10-23T11:26:01.204Z,1.80
2022-10-23T11:27:01.173Z,1.70
2022-10-23T11:28:03.558Z,1.70
2022-10-23T11:29:01.147Z,1.40
2022-10-23T11:30:01.187Z,1.50
2022-10-23T11:31:01.130Z,1.80
2022-10-23T11:32:01.128Z,1.60
2022-10-23T11:33:01.114Z,1.50
2022-10-23T11:34:01.106Z,1.40
2022-10-23T11:35:01.080Z,1.70
2022-10-23T11:36:01.128Z,1.60
2022-10-23T11:37:01.074Z,1.40
2022-10-23T11:38:01.067Z,1.60
2022-10-23T11:39:01.039Z,1.70
2022-10-23T11:40:01.049Z,2.00
2022-10-23T11:41:01.020Z,1.70
2022-10-23T11:42:01.058Z,1.60
2022-10-23T11:43:01.010Z,1.50
2022-10-23T11:44:01.023Z,1.40
2022-10-23T11:45:00.977Z,1.50
2022-10-23T11:46:00.984Z,1.80
2022-10-23T11:47:00.969Z,1.80
2022-10-23T11:48:00.984Z,1.80
2022-10-23T11:49:00.966Z,1.50
2022-10-23T11:50:00.943Z,1.70
2022-10-23T11:51:04.250Z,1.60
2022-10-23T11:52:00.916Z,1.50
2022-10-23T11:53:16.827Z,1.60
2022-10-23T11:54:00.928Z,1.70
2022-10-23T11:55:00.873Z,1.60
2022-10-23T11:56:00.876Z,1.60
2022-10-23T11:57:00.855Z,1.70
2022-10-23T11:58:00.856Z,1.70
2022-10-23T11:59:00.850Z,1.60
2022-10-23T12:00:00.868Z,1.80
2022-10-23T12:01:00.840Z,1.60
2022-10-23T12:02:00.913Z,1.70
2022-10-23T12:03:00.859Z,1.60
2022-10-23T12:04:00.788Z,1.50
2022-10-23T12:05:00.763Z,1.70
2022-10-23T12:06:00.792Z,1.70
2022-10-23T12:07:00.756Z,1.50
2022-10-23T12:08:00.753Z,1.60
2022-10-23T12:09:00.736Z,1.80
2022-10-23T12:10:00.727Z,1.40
2022-10-23T12:11:00.705Z,1.60
2022-10-23T12:12:00.739Z,1.40
2022-10-23T12:13:00.685Z,1.70
2022-10-23T12:14:00.725Z,1.30
2022-10-23T12:15:00.658Z,1.60
2022-10-23T12:16:01.144Z,1.60
2022-10-23T12:17:00.645Z,1.60
2022-10-23T12:18:00.678Z,1.40
2022-10-23T12:19:00.620Z,1.60
2022-10-23T12:20:00.631Z,1.50
2022-10-23T12:21:00.602Z,1.50
2022-10-23T12:22:00.659Z,1.40
2022-10-23T12:23:00.576Z,1.40
2022-10-23T12:24:00.638Z,1.40
2022-10-23T12:25:00.566Z,1.50
2022-10-23T12:26:00.559Z,1.60
2022-10-23T12:27:00.530Z,1.50
2022-10-23T12:28:00.537Z,1.40
2022-10-23T12:29:00.518Z,1.50
2022-10-23T12:30:00.553Z,1.40
2022-10-23T12:31:00.498Z,1.20
2022-10-23T12:32:00.498Z,1.40
2022-10-23T12:33:00.503Z,1.30
2022-10-23T12:34:00.478Z,1.40
2022-10-23T12:35:00.502Z,1.60
2022-10-23T12:36:00.483Z,1.40
2022-10-23T12:37:00.443Z,1.50
2022-10-23T12:38:00.428Z,1.50
2022-10-23T12:39:00.401Z,1.50
2022-10-23T12:40:00.420Z,1.40
2022-10-23T12:41:00.391Z,1.40
2022-10-23T12:42:00.448Z,1.30
2022-10-23T12:43:00.405Z,1.40
2022-10-23T12:44:00.369Z,1.40
2022-10-23T12:45:00.341Z,1.60
2022-10-23T12:46:00.343Z,1.40
2022-10-23T12:47:00.325Z,1.40
2022-10-23T12:48:00.352Z,1.50
2022-10-23T12:49:00.304Z,1.40
2022-10-23T12:50:00.320Z,1.60
2022-10-23T12:51:00.277Z,1.60
2022-10-23T12:52:00.279Z,1.40
2022-10-23T12:53:00.274Z,1.50
2022-10-23T12:54:00.307Z,1.60
2022-10-23T12:55:00.245Z,1.40
2022-10-23T12:57:00.217Z,1.40
2022-10-23T12:58:00.246Z,1.50
2022-10-23T12:59:00.210Z,1.50
2022-10-23T13:00:00.436Z,1.40
2022-10-23T13:01:00.341Z,1.30
2022-10-23T13:02:00.371Z,1.50
2022-10-23T13:03:00.147Z,1.60
2022-10-23T13:04:00.187Z,1.50
2022-10-23T13:05:00.255Z,1.30
2022-10-23T13:06:00.135Z,1.30
2022-10-23T13:07:00.111Z,1.60
2022-10-23T13:08:00.130Z,1.50
2022-10-23T13:09:00.095Z,1.60
2022-10-23T13:10:00.087Z,1.40
2022-10-23T13:11:06.579Z,1.40
2022-10-23T13:12:00.075Z,1.60
2022-10-23T13:13:00.046Z,1.40
2022-10-23T13:14:06.053Z,1.30
2022-10-23T13:15:06.530Z,1.30
2022-10-23T13:16:06.555Z,1.60
2022-10-23T13:17:06.500Z,1.50
2022-10-23T13:18:06.502Z,1.60
2022-10-23T13:18:59.977Z,1.60
2022-10-23T13:19:59.991Z,1.60